createdAt,value
2023-02-06T00:00:26.014Z,-4.26
2023-02-06T00:01:26.003Z,-4.19
2023-02-06T00:02:25.913Z,-4.14
2023-02-06T00:03:25.448Z,-4.14
2023-02-06T00:04:25.941Z,-4.11
2023-02-06T00:05:26.207Z,-4.04
2023-02-06T00:06:25.906Z,-3.9
2023-02-06T00:07:25.842Z,-3.91
2023-02-06T00:08:25.599Z,-3.93
2023-02-06T00:09:25.556Z,-3.82
2023-02-06T00:10:25.531Z,-3.8
2023-02-06T00:11:25.756Z,-3.82
2023-02-06T00:12:25.750Z,-3.79
2023-02-06T00:13:25.729Z,-3.63
2023-02-06T00:14:25.443Z,-3.6
2023-02-06T00:15:25.409Z,-3.56
2023-02-06T00:16:25.807Z,-3.56
2023-02-06T00:17:25.627Z,-3.58
2023-02-06T00:18:25.611Z,-3.5
2023-02-06T00:19:25.606Z,-3.51
2023-02-06T00:20:25.353Z,-3.43
2023-02-06T00:21:25.030Z,-3.47
2023-02-06T00:22:25.290Z,-3.43
2023-02-06T00:23:24.987Z,-3.36
2023-02-06T00:24:25.480Z,-3.36
2023-02-06T00:25:25.474Z,-3.32
2023-02-06T00:26:25.433Z,-3.29
2023-02-06T00:27:25.406Z,-3.3
2023-02-06T00:28:24.949Z,-3.28
2023-02-06T00:29:25.165Z,-3.29
2023-02-06T00:30:25.592Z,-3.33
2023-02-06T00:31:24.970Z,-3.25
2023-02-06T00:32:25.406Z,-3.29
2023-02-06T00:33:25.868Z,-3.29
2023-02-06T00:34:25.029Z,-3.25
2023-02-06T00:35:25.278Z,-3.25
2023-02-06T00:36:25.258Z,-3.32
2023-02-06T00:37:25.239Z,-3.3
2023-02-06T00:38:25.205Z,-3.3
2023-02-06T00:39:25.157Z,-3.24
2023-02-06T00:40:24.902Z,-3.22
2023-02-06T00:41:24.619Z,-3.22
2023-02-06T00:42:24.858Z,-3.11
2023-02-06T00:43:25.064Z,-3.17
2023-02-06T00:44:24.791Z,-3.12
2023-02-06T00:45:25.024Z,-3.06
2023-02-06T00:46:25.197Z,-3.09
2023-02-06T00:47:24.984Z,-3.03
2023-02-06T00:48:24.957Z,-2.94
2023-02-06T00:49:24.933Z,-2.94
2023-02-06T00:50:25.173Z,-2.88
2023-02-06T00:51:24.948Z,-2.91
2023-02-06T00:52:24.914Z,-2.93
2023-02-06T00:53:24.355Z,-2.85
2023-02-06T00:54:24.881Z,-2.88
2023-02-06T00:55:24.562Z,-2.88
2023-02-06T00:56:24.791Z,-2.82
2023-02-06T00:57:24.774Z,-2.83
2023-02-06T00:58:24.499Z,-2.73
2023-02-06T00:59:24.751Z,-2.73
2023-02-06T01:00:24.233Z,-2.73
2023-02-06T01:01:24.814Z,-2.62
2023-02-06T01:02:24.549Z,-2.7
2023-02-06T01:03:24.391Z,-2.64
2023-02-06T01:04:24.108Z,-2.6
2023-02-06T01:05:24.101Z,-2.57
2023-02-06T01:06:24.670Z,-2.57
2023-02-06T01:07:24.573Z,-2.57
2023-02-06T01:08:24.306Z,-2.64
2023-02-06T01:09:24.509Z,-2.67
2023-02-06T01:10:24.525Z,-2.62
2023-02-06T01:11:24.470Z,-2.54
2023-02-06T01:12:24.445Z,-2.47
2023-02-06T01:13:24.256Z,-2.49
2023-02-06T01:14:24.409Z,-2.46
2023-02-06T01:15:24.123Z,-2.42
2023-02-06T01:16:24.380Z,-2.42
2023-02-06T01:17:24.076Z,-2.43
2023-02-06T01:18:24.090Z,-2.47
2023-02-06T01:19:24.048Z,-2.42
2023-02-06T01:20:24.042Z,-2.47
2023-02-06T01:21:23.743Z,-2.39
2023-02-06T01:22:23.985Z,-2.37
2023-02-06T01:23:23.991Z,-2.3
2023-02-06T01:24:24.221Z,-2.32
2023-02-06T01:25:24.177Z,-2.4
2023-02-06T01:26:24.189Z,-2.39
2023-02-06T01:27:24.126Z,-2.39
2023-02-06T01:28:23.849Z,-2.32
2023-02-06T01:29:23.832Z,-2.34
2023-02-06T01:30:23.688Z,-2.4
2023-02-06T01:31:24.082Z,-2.36
2023-02-06T01:32:23.763Z,-2.36
2023-02-06T01:34:23.715Z,-2.36
2023-02-06T01:35:23.971Z,-2.37
2023-02-06T01:36:23.696Z,-2.3
2023-02-06T01:37:23.658Z,-2.27
2023-02-06T01:38:23.891Z,-2.34
2023-02-06T01:39:23.651Z,-2.34
2023-02-06T01:40:29.566Z,-2.24
2023-02-06T01:41:23.597Z,-2.2
2023-02-06T01:42:23.833Z,-2.27
2023-02-06T01:43:23.281Z,-2.28
2023-02-06T01:44:23.755Z,-2.25
2023-02-06T01:45:23.485Z,-2.28
2023-02-06T01:46:23.609Z,-2.34
2023-02-06T01:47:23.452Z,-2.25
2023-02-06T01:48:23.677Z,-2.28
2023-02-06T01:49:23.391Z,-2.23
2023-02-06T01:50:23.644Z,-2.27
2023-02-06T01:51:23.618Z,-2.25
2023-02-06T01:52:23.588Z,-2.27
2023-02-06T01:53:23.315Z,-2.27
2023-02-06T01:54:23.295Z,-2.34
2023-02-06T01:55:23.309Z,-2.23
2023-02-06T01:56:23.001Z,-2.28
2023-02-06T01:57:23.260Z,-2.3
2023-02-06T01:58:23.486Z,-2.24
2023-02-06T01:59:23.185Z,-2.25
2023-02-06T02:00:23.184Z,-2.21
2023-02-06T02:01:23.402Z,-2.32
2023-02-06T02:02:23.569Z,-2.21
2023-02-06T02:03:23.367Z,-2.3
2023-02-06T02:04:23.077Z,-2.34
2023-02-06T02:05:22.815Z,-2.43
2023-02-06T02:06:23.291Z,-2.4
2023-02-06T02:07:22.777Z,-2.34
2023-02-06T02:08:23.005Z,-2.3
2023-02-06T02:09:22.973Z,-2.32
2023-02-06T02:10:23.239Z,-2.27
2023-02-06T02:11:22.994Z,-2.3
2023-02-06T02:12:23.272Z,-2.24
2023-02-06T02:13:23.296Z,-2.25
2023-02-06T02:14:23.201Z,-2.24
2023-02-06T02:15:22.583Z,-2.23
2023-02-06T02:16:23.177Z,-2.21
2023-02-06T02:17:23.060Z,-2.24
2023-02-06T02:18:22.540Z,-2.24
2023-02-06T02:19:22.768Z,-2.23
2023-02-06T02:20:22.739Z,-2.24
2023-02-06T02:21:23.009Z,-2.23
2023-02-06T02:22:22.969Z,-2.25
2023-02-06T02:23:22.945Z,-2.24
2023-02-06T02:24:22.659Z,-2.28
2023-02-06T02:25:22.894Z,-2.28
2023-02-06T02:26:22.867Z,-2.18
2023-02-06T02:27:22.882Z,-2.2
2023-02-06T02:28:23.080Z,-2.17
2023-02-06T02:29:22.834Z,-2.23
2023-02-06T02:30:22.691Z,-2.15
2023-02-06T02:31:22.881Z,-2.15
2023-02-06T02:32:22.746Z,-2.21
2023-02-06T02:33:22.226Z,-2.17
2023-02-06T02:34:22.440Z,-2.2
2023-02-06T02:35:22.693Z,-2.23
2023-02-06T02:36:22.672Z,-2.15
2023-02-06T02:37:22.631Z,-2.15
2023-02-06T02:38:22.362Z,-2.15
2023-02-06T02:39:22.599Z,-2.14
2023-02-06T02:40:22.323Z,-2.17
2023-02-06T02:41:22.693Z,-2.2
2023-02-06T02:42:22.534Z,-2.2
2023-02-06T02:43:22.307Z,-2.07
2023-02-06T02:44:22.499Z,-2.17
2023-02-06T02:45:22.509Z,-2.2
2023-02-06T02:46:22.233Z,-2.1
2023-02-06T02:47:22.179Z,-2.12
2023-02-06T02:48:22.616Z,-2.12
2023-02-06T02:49:22.385Z,-2.06
2023-02-06T02:50:21.862Z,-2.1
2023-02-06T02:51:22.098Z,-2.12
2023-02-06T02:52:22.072Z,-2.03
2023-02-06T02:53:22.056Z,-2.03
2023-02-06T02:54:21.761Z,-2.03
2023-02-06T02:55:22.004Z,-2.06
2023-02-06T02:56:22.271Z,-2.06
2023-02-06T02:57:21.964Z,-2.05
2023-02-06T02:58:21.944Z,-2.07
2023-02-06T02:59:21.948Z,-2.12
2023-02-06T03:00:22.145Z,-2.09
2023-02-06T03:01:22.167Z,-2.07
2023-02-06T03:02:22.310Z,-2.09
2023-02-06T03:03:22.090Z,-2.03
2023-02-06T03:04:22.053Z,-2.09
2023-02-06T03:05:22.045Z,-1.92
2023-02-06T03:06:21.773Z,-2.03
2023-02-06T03:07:21.754Z,-1.99
2023-02-06T03:08:21.981Z,-1.91
2023-02-06T03:09:21.699Z,-2
2023-02-06T03:10:21.938Z,-1.97
2023-02-06T03:11:21.917Z,-1.96
2023-02-06T03:12:21.637Z,-1.94
2023-02-06T03:13:21.867Z,-1.94
2023-02-06T03:14:22.891Z,-2
2023-02-06T03:15:23.435Z,-1.94
2023-02-06T03:16:23.182Z,-1.82
2023-02-06T03:17:23.391Z,-1.84
2023-02-06T03:18:23.372Z,-1.94
2023-02-06T03:19:23.072Z,-1.86
2023-02-06T03:20:23.052Z,-1.86
2023-02-06T03:21:23.033Z,-1.86
2023-02-06T03:22:23.308Z,-1.88
2023-02-06T03:23:23.229Z,-1.88
2023-02-06T03:24:22.702Z,-1.91
2023-02-06T03:25:22.939Z,-1.86
2023-02-06T03:26:23.186Z,-1.82
2023-02-06T03:27:22.884Z,-1.84
2023-02-06T03:28:23.169Z,-1.81
2023-02-06T03:29:23.112Z,-1.85
2023-02-06T03:30:23.112Z,-1.89
2023-02-06T03:31:23.188Z,-1.81
2023-02-06T03:32:22.782Z,-1.84
2023-02-06T03:50:08.407Z,-1.96
2023-02-06T03:51:08.260Z,-1.92
2023-02-06T03:52:08.224Z,-1.96
2023-02-06T03:53:07.979Z,-1.94
2023-02-06T03:54:07.938Z,-1.99
2023-02-06T03:55:08.333Z,-1.96
2023-02-06T03:56:07.883Z,-2.07
2023-02-06T03:57:07.863Z,-2.06
2023-02-06T03:58:07.593Z,-2.14
2023-02-06T03:59:08.075Z,-2.14
2023-02-06T04:00:07.537Z,-2.06
2023-02-06T04:01:08.205Z,-2.18
2023-02-06T04:02:08.121Z,-2.2
2023-02-06T04:03:07.738Z,-2.2
2023-02-06T04:04:07.961Z,-2.24
2023-02-06T04:05:07.951Z,-2.21
2023-02-06T04:06:08.015Z,-2.27
2023-02-06T04:07:07.652Z,-2.27
2023-02-06T04:08:07.621Z,-2.24
2023-02-06T04:09:07.601Z,-2.25
2023-02-06T04:10:07.578Z,-2.25
2023-02-06T04:11:07.829Z,-2.25
2023-02-06T04:12:07.552Z,-2.24
2023-02-06T04:13:07.521Z,-2.23
2023-02-06T04:14:07.748Z,-2.24
2023-02-06T04:15:07.728Z,-2.3
2023-02-06T04:16:07.460Z,-2.15
2023-02-06T04:17:07.719Z,-2.15
2023-02-06T04:18:09.314Z,-2.15
2023-02-06T04:19:07.393Z,-2.2
2023-02-06T04:20:07.616Z,-2.06
2023-02-06T04:21:07.640Z,-2.15
2023-02-06T04:22:07.655Z,-2.15
2023-02-06T04:23:07.307Z,-2.17
2023-02-06T04:24:07.532Z,-2.14
2023-02-06T04:25:07.006Z,-2.21
2023-02-06T04:26:07.506Z,-2.09
2023-02-06T04:27:07.209Z,-2.06
2023-02-06T04:28:07.816Z,-2.1
2023-02-06T04:29:07.424Z,-2.07
2023-02-06T04:30:08.320Z,-2.1
2023-02-06T04:31:08.743Z,-2.03
2023-02-06T04:32:08.283Z,-2
2023-02-06T04:33:08.254Z,-2.05
2023-02-06T04:34:07.979Z,-2.03
2023-02-06T04:35:07.981Z,-2.02
2023-02-06T04:36:07.949Z,-1.99
2023-02-06T04:37:08.164Z,-1.96
2023-02-06T04:38:08.228Z,-1.92
2023-02-06T04:39:07.618Z,-1.88
2023-02-06T04:40:07.689Z,-2.05
2023-02-06T04:41:07.576Z,-1.96
2023-02-06T04:42:08.051Z,-2.02
2023-02-06T04:43:08.040Z,-1.92
2023-02-06T04:44:08.037Z,-1.91
2023-02-06T04:45:08.028Z,-2
2023-02-06T04:46:07.892Z,-1.96
2023-02-06T04:47:07.711Z,-1.97
2023-02-06T04:48:07.941Z,-1.99
2023-02-06T04:49:07.658Z,-1.99
2023-02-06T04:50:07.886Z,-1.91
2023-02-06T04:51:07.638Z,-1.99
2023-02-06T04:52:07.847Z,-1.99
2023-02-06T04:53:07.822Z,-1.96
2023-02-06T04:54:07.881Z,-1.94
2023-02-06T04:55:07.283Z,-1.89
2023-02-06T04:56:07.783Z,-1.89
2023-02-06T04:57:07.241Z,-1.81
2023-02-06T04:58:07.723Z,-1.89
2023-02-06T04:59:07.472Z,-1.96
2023-02-06T05:00:07.676Z,-1.89
2023-02-06T05:01:07.413Z,-1.86
2023-02-06T05:02:07.381Z,-1.86
2023-02-06T05:03:07.361Z,-1.82
2023-02-06T05:04:07.591Z,-1.86
2023-02-06T05:05:07.568Z,-1.88
2023-02-06T05:06:07.291Z,-1.94
2023-02-06T05:07:10.261Z,-1.92
2023-02-06T05:08:06.993Z,-1.84
2023-02-06T05:09:07.225Z,-1.91
2023-02-06T05:10:07.820Z,-1.88
2023-02-06T05:11:07.439Z,-1.97
2023-02-06T05:12:07.813Z,-1.86
2023-02-06T05:13:08.043Z,-1.99
2023-02-06T05:14:08.887Z,-1.92
2023-02-06T05:15:08.836Z,-1.96
2023-02-06T05:16:08.897Z,-1.94
2023-02-06T05:17:08.533Z,-1.92
2023-02-06T05:18:08.769Z,-1.99
2023-02-06T05:19:08.739Z,-1.92
2023-02-06T05:20:08.209Z,-1.97
2023-02-06T05:21:08.435Z,-1.88
2023-02-06T05:22:08.420Z,-1.97
2023-02-06T05:23:08.799Z,-1.94
2023-02-06T05:24:08.637Z,-1.91
2023-02-06T05:25:08.601Z,-1.96
2023-02-06T05:26:08.883Z,-2.02
2023-02-06T05:27:08.327Z,-1.97
2023-02-06T05:28:08.865Z,-1.92
2023-02-06T05:29:08.288Z,-1.89
2023-02-06T05:30:08.539Z,-1.92
2023-02-06T05:31:08.615Z,-2.02
2023-02-06T05:32:07.974Z,-1.92
2023-02-06T05:33:08.189Z,-1.99
2023-02-06T05:34:08.162Z,-1.92
2023-02-06T05:35:08.155Z,-1.99
2023-02-06T05:36:08.126Z,-1.96
2023-02-06T05:37:08.104Z,-1.97
2023-02-06T05:38:08.360Z,-1.89
2023-02-06T05:39:08.312Z,-1.91
2023-02-06T05:40:07.776Z,-1.94
2023-02-06T05:41:08.267Z,-1.97
2023-02-06T05:42:08.742Z,-1.94
2023-02-06T05:43:07.970Z,-1.96
2023-02-06T05:44:07.961Z,-1.97
2023-02-06T05:45:07.963Z,-1.92
2023-02-06T05:46:07.825Z,-1.97
2023-02-06T05:47:07.886Z,-1.96
2023-02-06T05:48:08.119Z,-1.94
2023-02-06T05:49:07.853Z,-1.92
2023-02-06T05:50:08.086Z,-1.94
2023-02-06T05:51:07.796Z,-1.92
2023-02-06T05:52:08.030Z,-1.96
2023-02-06T05:53:08.032Z,-1.94
2023-02-06T05:54:08.007Z,-1.97
2023-02-06T05:55:07.745Z,-1.92
2023-02-06T05:56:07.958Z,-2
2023-02-06T05:57:07.702Z,-2.02
2023-02-06T05:58:10.980Z,-1.99
2023-02-06T05:59:07.635Z,-1.99
2023-02-06T06:00:07.881Z,-1.97
2023-02-06T06:01:07.601Z,-2.02
2023-02-06T06:02:07.828Z,-2
2023-02-06T06:03:07.309Z,-1.91
2023-02-06T06:04:08.098Z,-2.02
2023-02-06T06:05:07.910Z,-1.97
2023-02-06T06:06:07.738Z,-2
2023-02-06T06:07:07.739Z,-1.91
2023-02-06T06:08:07.453Z,-1.99
2023-02-06T06:09:07.459Z,-1.88
2023-02-06T06:10:07.653Z,-1.91
2023-02-06T06:11:07.413Z,-1.96
2023-02-06T06:12:07.104Z,-1.96
2023-02-06T06:13:07.610Z,-1.84
2023-02-06T06:14:07.654Z,-1.86
2023-02-06T06:15:07.325Z,-1.89
2023-02-06T06:16:07.735Z,-1.89
2023-02-06T06:17:07.007Z,-1.81
2023-02-06T06:18:07.494Z,-1.78
2023-02-06T06:19:07.503Z,-1.85
2023-02-06T06:20:07.193Z,-1.74
2023-02-06T06:21:07.797Z,-1.85
2023-02-06T06:22:07.772Z,-1.81
2023-02-06T06:23:07.492Z,-1.84
2023-02-06T06:24:07.461Z,-1.82
2023-02-06T06:25:07.717Z,-1.88
2023-02-06T06:26:07.685Z,-1.74
2023-02-06T06:27:07.659Z,-1.73
2023-02-06T06:28:07.324Z,-1.85
2023-02-06T06:29:07.371Z,-1.85
2023-02-06T06:30:07.725Z,-1.81
2023-02-06T06:31:08.084Z,-1.73
2023-02-06T06:32:07.061Z,-1.7
2023-02-06T06:33:07.535Z,-1.67
2023-02-06T06:34:07.514Z,-1.68
2023-02-06T06:35:07.268Z,-1.67
2023-02-06T06:36:07.480Z,-1.68
2023-02-06T06:37:07.206Z,-1.71
2023-02-06T06:38:07.182Z,-1.74
2023-02-06T06:39:06.895Z,-1.68
2023-02-06T06:40:07.200Z,-1.68
2023-02-06T06:41:07.364Z,-1.67
2023-02-06T06:42:06.836Z,-1.66
2023-02-06T06:43:07.086Z,-1.71
2023-02-06T06:44:07.068Z,-1.7
2023-02-06T06:45:07.326Z,-1.74
2023-02-06T06:46:07.598Z,-1.68
2023-02-06T06:47:07.262Z,-1.7
2023-02-06T06:48:06.970Z,-1.66
2023-02-06T06:49:06.948Z,-1.7
2023-02-06T06:50:06.936Z,-1.67
2023-02-06T06:51:06.902Z,-1.56
2023-02-06T06:52:23.237Z,-1.6
2023-02-06T06:53:06.873Z,-1.55
2023-02-06T06:54:06.858Z,-1.55
2023-02-06T06:55:07.068Z,-1.61
2023-02-06T06:56:06.806Z,-1.63
2023-02-06T06:57:07.028Z,-1.53
2023-02-06T06:58:07.011Z,-1.55
2023-02-06T06:59:06.994Z,-1.55
2023-02-06T07:00:06.716Z,-1.58
2023-02-06T07:01:07.143Z,-1.48
2023-02-06T07:02:07.088Z,-1.55
2023-02-06T07:03:07.129Z,-1.53
2023-02-06T07:04:06.633Z,-1.55
2023-02-06T07:05:06.863Z,-1.48
2023-02-06T07:06:06.349Z,-1.48
2023-02-06T07:07:06.825Z,-1.45
2023-02-06T07:08:06.549Z,-1.46
2023-02-06T07:09:06.524Z,-1.5
2023-02-06T07:10:06.790Z,-1.52
2023-02-06T07:11:06.497Z,-1.5
2023-02-06T07:12:06.460Z,-1.45
2023-02-06T07:13:06.447Z,-1.48
2023-02-06T07:14:06.170Z,-1.38
2023-02-06T07:15:06.394Z,-1.37
2023-02-06T07:16:06.645Z,-1.43
2023-02-06T07:17:06.713Z,-1.38
2023-02-06T07:18:06.697Z,-1.4
2023-02-06T07:19:06.054Z,-1.43
2023-02-06T07:20:06.589Z,-1.38
2023-02-06T07:21:06.278Z,-1.31
2023-02-06T07:22:06.518Z,-1.38
2023-02-06T07:23:06.231Z,-1.38
2023-02-06T07:24:06.217Z,-1.37
2023-02-06T07:25:07.219Z,-1.37
2023-02-06T07:26:07.206Z,-1.38
2023-02-06T07:27:06.934Z,-1.27
2023-02-06T07:28:07.327Z,-1.38
2023-02-06T07:29:07.416Z,-1.31
2023-02-06T07:30:09.020Z,-1.32
2023-02-06T07:31:07.412Z,-1.28
2023-02-06T07:32:07.089Z,-1.38
2023-02-06T07:33:07.317Z,-1.32
2023-02-06T07:34:07.613Z,-1.24
2023-02-06T07:35:07.015Z,-1.25
2023-02-06T07:36:08.707Z,-1.27
2023-02-06T07:37:07.270Z,-1.25
2023-02-06T07:38:07.211Z,-1.25
2023-02-06T07:39:07.178Z,-1.19
2023-02-06T07:40:07.165Z,-1.27
2023-02-06T07:41:06.939Z,-1.25
2023-02-06T07:42:06.861Z,-1.27
2023-02-06T07:43:07.098Z,-1.22
2023-02-06T07:44:06.828Z,-1.24
2023-02-06T07:45:07.057Z,-1.21
2023-02-06T07:46:07.252Z,-1.19
2023-02-06T07:47:06.764Z,-1.25
2023-02-06T07:48:07.018Z,-1.21
2023-02-06T07:49:06.721Z,-1.25
2023-02-06T07:50:07.185Z,-1.24
2023-02-06T07:51:06.690Z,-1.27
2023-02-06T07:52:06.948Z,-1.27
2023-02-06T07:53:06.646Z,-1.27
2023-02-06T07:54:06.874Z,-1.25
2023-02-06T07:55:06.850Z,-1.28
2023-02-06T07:56:06.575Z,-1.27
2023-02-06T07:57:06.595Z,-1.27
2023-02-06T07:58:06.576Z,-1.32
2023-02-06T07:59:06.518Z,-1.3
2023-02-06T08:00:06.486Z,-1.3
2023-02-06T08:01:06.832Z,-1.35
2023-02-06T08:02:06.720Z,-1.34
2023-02-06T08:03:06.682Z,-1.21
2023-02-06T08:04:06.492Z,-1.28
2023-02-06T08:05:06.659Z,-1.25
2023-02-06T08:06:06.804Z,-1.28
2023-02-06T08:07:06.626Z,-1.27
2023-02-06T08:08:06.597Z,-1.19
2023-02-06T08:09:06.302Z,-1.16
2023-02-06T08:10:06.061Z,-1.14
2023-02-06T08:11:06.276Z,-1.27
2023-02-06T08:12:06.248Z,-1.16
2023-02-06T08:13:06.218Z,-1.25
2023-02-06T08:14:06.462Z,-1.21
2023-02-06T08:15:06.436Z,-1.22
2023-02-06T08:16:06.410Z,-1.24
2023-02-06T08:17:06.417Z,-1.24
2023-02-06T08:18:06.368Z,-1.24
2023-02-06T08:19:06.393Z,-1.17
2023-02-06T08:20:06.395Z,-1.17
2023-02-06T08:21:06.112Z,-1.25
2023-02-06T08:22:06.429Z,-1.19
2023-02-06T08:23:06.274Z,-1.21
2023-02-06T08:24:05.743Z,-1.1
2023-02-06T08:25:06.262Z,-1.24
2023-02-06T08:26:05.959Z,-1.21
2023-02-06T08:27:06.187Z,-1.21
2023-02-06T08:28:06.328Z,-1.17
2023-02-06T08:29:05.889Z,-1.22
2023-02-06T08:30:06.132Z,-1.13
2023-02-06T08:31:09.890Z,-1.09
2023-02-06T08:32:05.824Z,-1.21
2023-02-06T08:33:06.067Z,-1.17
2023-02-06T08:34:05.543Z,-1.14
2023-02-06T08:35:06.067Z,-1.19
2023-02-06T08:36:06.001Z,-1.21
2023-02-06T08:37:05.727Z,-1.1
2023-02-06T08:38:06.051Z,-1.19
2023-02-06T08:39:05.687Z,-1.13
2023-02-06T08:40:05.661Z,-1.11
2023-02-06T08:41:05.918Z,-1.03
2023-02-06T08:42:05.621Z,-1.16
2023-02-06T08:43:05.852Z,-1.09
2023-02-06T08:44:05.592Z,-1.07
2023-02-06T08:45:05.552Z,-1.03
2023-02-06T08:46:05.944Z,-1.01
2023-02-06T08:47:14.211Z,-0.91
2023-02-06T08:48:05.748Z,-1.01
2023-02-06T08:49:05.506Z,-0.89
2023-02-06T08:50:07.925Z,-0.95
2023-02-06T08:51:05.444Z,-0.91
2023-02-06T08:52:05.427Z,-0.84
2023-02-06T08:53:05.509Z,-0.84
2023-02-06T08:54:05.708Z,-0.87
2023-02-06T08:55:05.617Z,-0.91
2023-02-06T08:56:05.632Z,-0.93
2023-02-06T08:57:05.313Z,-0.93
2023-02-06T08:58:05.613Z,-0.91
2023-02-06T08:59:05.580Z,-0.85
2023-02-06T09:00:05.515Z,-0.84
2023-02-06T09:01:05.371Z,-0.91
2023-02-06T09:02:06.610Z,-0.89
2023-02-06T09:03:05.456Z,-0.84
2023-02-06T09:04:05.427Z,-0.82
2023-02-06T09:05:05.143Z,-0.84
2023-02-06T09:06:14.307Z,-0.79
2023-02-06T09:07:05.368Z,-0.82
2023-02-06T09:08:05.390Z,-0.85
2023-02-06T09:09:05.321Z,-0.87
2023-02-06T09:10:05.445Z,-0.85
2023-02-06T09:11:05.298Z,-0.87
2023-02-06T09:12:05.272Z,-0.84
2023-02-06T09:13:05.125Z,-0.79
2023-02-06T09:14:05.228Z,-0.76
2023-02-06T09:15:05.190Z,-0.79
2023-02-06T09:16:05.107Z,-0.74
2023-02-06T09:17:04.927Z,-0.67
2023-02-06T09:18:04.881Z,-0.66
2023-02-06T09:19:04.883Z,-0.64
2023-02-06T09:20:05.110Z,-0.56
2023-02-06T09:21:04.840Z,-0.66
2023-02-06T09:22:07.120Z,-0.59
2023-02-06T09:23:04.523Z,-0.67
2023-02-06T09:24:04.501Z,-0.66
2023-02-06T09:25:04.765Z,-0.62
2023-02-06T09:26:05.035Z,-0.7
2023-02-06T09:27:05.951Z,-0.67
2023-02-06T09:28:05.190Z,-0.62
2023-02-06T09:29:04.675Z,-0.72
2023-02-06T09:30:04.661Z,-0.73
2023-02-06T09:31:05.494Z,-0.62
2023-02-06T09:32:04.883Z,-0.66
2023-02-06T09:33:04.819Z,-0.59
2023-02-06T09:34:04.807Z,-0.61
2023-02-06T09:35:04.276Z,-0.62
2023-02-06T09:36:04.604Z,-0.64
2023-02-06T09:37:04.881Z,-0.69
2023-02-06T09:38:04.716Z,-0.73
2023-02-06T09:39:04.699Z,-0.73
2023-02-06T09:40:04.433Z,-0.69
2023-02-06T09:41:04.399Z,-0.72
2023-02-06T09:42:04.723Z,-0.58
2023-02-06T09:43:04.610Z,-0.51
2023-02-06T09:44:04.597Z,-0.46
2023-02-06T09:45:04.325Z,-0.51
2023-02-06T09:46:04.415Z,-0.54
2023-02-06T09:47:04.555Z,-0.41
2023-02-06T09:48:04.509Z,-0.54
2023-02-06T09:49:04.231Z,-0.46
2023-02-06T09:50:04.494Z,-0.51
2023-02-06T09:51:04.445Z,-0.43
2023-02-06T09:52:04.425Z,-0.54
2023-02-06T09:53:04.433Z,-0.49
2023-02-06T09:54:04.137Z,-0.37
2023-02-06T09:55:04.209Z,-0.38
2023-02-06T09:56:04.116Z,-0.46
2023-02-06T09:57:04.326Z,-0.41
2023-02-06T09:58:04.389Z,-0.37
2023-02-06T09:59:04.043Z,-0.36
2023-02-06T10:00:03.772Z,-0.46
2023-02-06T10:01:03.767Z,-0.37
2023-02-06T10:02:04.279Z,-0.51
2023-02-06T10:03:04.003Z,-0.51
2023-02-06T10:04:04.100Z,-0.54
2023-02-06T10:05:04.048Z,-0.49
2023-02-06T10:06:04.175Z,-0.43
2023-02-06T10:07:04.116Z,-0.38
2023-02-06T10:08:03.871Z,-0.36
2023-02-06T10:09:03.833Z,-0.36
2023-02-06T10:10:03.632Z,-0.31
2023-02-06T10:11:03.819Z,-0.33
2023-02-06T10:12:03.785Z,-0.25
2023-02-06T10:13:04.013Z,-0.22
2023-02-06T10:14:04.090Z,-0.23
2023-02-06T10:15:03.951Z,-0.27
2023-02-06T10:16:04.105Z,-0.3
2023-02-06T10:17:03.922Z,-0.25
2023-02-06T10:18:03.453Z,-0.3
2023-02-06T10:19:03.655Z,-0.27
2023-02-06T10:20:03.876Z,-0.28
2023-02-06T10:21:03.844Z,-0.2
2023-02-06T10:22:03.816Z,-0.12
2023-02-06T10:23:03.810Z,-0.18
2023-02-06T10:24:03.798Z,-0.18
2023-02-06T10:25:03.507Z,-0.18
2023-02-06T10:26:03.763Z,-0.16
2023-02-06T10:27:03.749Z,-0.13
2023-02-06T10:28:03.920Z,-0.2
2023-02-06T10:29:03.728Z,-0.1
2023-02-06T10:30:03.880Z,-0.13
2023-02-06T10:31:03.945Z,-0.05
2023-02-06T10:32:03.507Z,-0.09
2023-02-06T10:33:03.346Z,-0.04
2023-02-06T10:34:03.572Z,-0.05
2023-02-06T10:35:03.301Z,0.02
2023-02-06T10:36:03.560Z,0.01
2023-02-06T10:37:03.525Z,0.03
2023-02-06T10:38:03.231Z,-0.04
2023-02-06T10:39:02.983Z,0.03
2023-02-06T10:40:03.471Z,-0.05
2023-02-06T10:41:03.204Z,-0.04
2023-02-06T10:42:03.175Z,-0.09
2023-02-06T10:43:03.140Z,-0.04
2023-02-06T10:44:03.232Z,-0.1
2023-02-06T10:45:23.090Z,-0.01
2023-02-06T10:46:03.418Z,0.01
2023-02-06T10:47:03.211Z,0.01
2023-02-06T10:48:03.300Z,0.06
2023-02-06T10:49:03.326Z,0.06
2023-02-06T10:50:03.247Z,0.09
2023-02-06T10:51:03.237Z,0.14
2023-02-06T10:52:03.233Z,0.13
2023-02-06T10:53:03.218Z,0.13
2023-02-06T10:54:03.180Z,0.16
2023-02-06T10:55:02.919Z,0.06
2023-02-06T10:56:03.143Z,0.08
2023-02-06T10:57:02.857Z,0.09
2023-02-06T10:58:03.092Z,0.09
2023-02-06T10:59:03.090Z,0.06
2023-02-06T11:00:02.853Z,0.01
2023-02-06T11:01:05.457Z,0.02
2023-02-06T11:02:05.263Z,0.05
2023-02-06T11:03:12.269Z,0.09
2023-02-06T11:04:02.721Z,0.1
2023-02-06T11:05:03.001Z,0.02
2023-02-06T11:06:02.932Z,-0.01
2023-02-06T11:07:02.923Z,-0.12
2023-02-06T11:08:02.912Z,-0.09
2023-02-06T11:09:02.910Z,-0.1
2023-02-06T11:10:02.640Z,-0.23
2023-02-06T11:11:02.840Z,-0.23
2023-02-06T11:12:02.558Z,-0.3
2023-02-06T11:13:02.815Z,-0.22
2023-02-06T11:14:02.265Z,-0.34
2023-02-06T11:15:02.512Z,-0.31
2023-02-06T11:16:03.014Z,-0.36
2023-02-06T11:17:02.767Z,-0.28
2023-02-06T11:18:02.482Z,-0.27
2023-02-06T11:19:02.741Z,-0.28
2023-02-06T11:20:02.410Z,-0.23
2023-02-06T11:21:02.688Z,-0.16
2023-02-06T11:22:02.158Z,-0.25
2023-02-06T11:23:02.374Z,-0.2
2023-02-06T11:24:02.572Z,-0.3
2023-02-06T11:25:02.291Z,-0.33
2023-02-06T11:26:02.302Z,-0.19
2023-02-06T11:27:02.559Z,-0.31
2023-02-06T11:28:02.646Z,-0.31
2023-02-06T11:29:02.462Z,-0.34
2023-02-06T11:30:02.190Z,-0.31
2023-02-06T11:31:02.643Z,-0.3
2023-02-06T11:32:02.470Z,-0.33
2023-02-06T11:33:09.521Z,-0.36
2023-02-06T11:34:02.389Z,-0.34
2023-02-06T11:35:02.346Z,-0.4
2023-02-06T11:36:02.140Z,-0.3
2023-02-06T11:37:02.403Z,-0.36
2023-02-06T11:38:03.138Z,-0.4
2023-02-06T11:39:02.274Z,-0.33
2023-02-06T11:40:02.240Z,-0.37
2023-02-06T11:41:02.234Z,-0.36
2023-02-06T11:42:02.213Z,-0.33
2023-02-06T11:43:02.400Z,-0.4
2023-02-06T11:44:01.898Z,-0.33
2023-02-06T11:45:01.622Z,-0.43
2023-02-06T11:46:02.225Z,-0.48
2023-02-06T11:47:02.082Z,-0.49
2023-02-06T11:48:02.080Z,-0.46
2023-02-06T11:49:02.127Z,-0.49
2023-02-06T11:50:02.084Z,-0.49
2023-02-06T11:51:01.779Z,-0.34
2023-02-06T11:52:01.732Z,-0.49
2023-02-06T11:53:01.731Z,-0.36
2023-02-06T11:54:01.707Z,-0.49
2023-02-06T11:55:01.928Z,-0.37
2023-02-06T11:56:01.905Z,-0.41
2023-02-06T11:57:01.646Z,-0.38
2023-02-06T11:58:01.650Z,-0.38
2023-02-06T11:59:01.595Z,-0.37
2023-02-06T12:00:01.852Z,-0.33
2023-02-06T12:01:01.567Z,-0.38
2023-02-06T12:02:01.901Z,-0.34
2023-02-06T12:03:02.042Z,-0.45
2023-02-06T12:04:01.765Z,-0.51
2023-02-06T12:05:01.616Z,-0.51
2023-02-06T12:06:05.682Z,-0.48
2023-02-06T12:07:01.433Z,-0.49
2023-02-06T12:08:01.407Z,-0.48
2023-02-06T12:09:01.509Z,-0.45
2023-02-06T12:10:01.367Z,-0.51
2023-02-06T12:11:01.602Z,-0.46
2023-02-06T12:12:01.346Z,-0.43
2023-02-06T12:13:01.561Z,-0.51
2023-02-06T12:14:01.277Z,-0.46
2023-02-06T12:15:07.364Z,-0.48
2023-02-06T12:16:01.237Z,-0.52
2023-02-06T12:17:01.542Z,-0.48
2023-02-06T12:18:01.510Z,-0.51
2023-02-06T12:19:01.200Z,-0.56
2023-02-06T12:20:01.430Z,-0.56
2023-02-06T12:21:01.513Z,-0.52
2023-02-06T12:22:01.287Z,-0.56
2023-02-06T12:23:01.384Z,-0.54
2023-02-06T12:24:01.366Z,-0.59
2023-02-06T12:25:01.352Z,-0.66
2023-02-06T12:26:00.800Z,-0.59
2023-02-06T12:27:01.025Z,-0.64
2023-02-06T12:28:01.335Z,-0.67
2023-02-06T12:29:01.256Z,-0.66
2023-02-06T12:30:01.218Z,-0.66
2023-02-06T12:31:01.406Z,-0.69
2023-02-06T12:32:01.330Z,-0.7
2023-02-06T12:33:01.157Z,-0.69
2023-02-06T12:34:00.868Z,-0.66
2023-02-06T12:35:01.133Z,-0.69
2023-02-06T12:36:01.084Z,-0.7
2023-02-06T12:37:01.162Z,-0.69
2023-02-06T12:38:01.074Z,-0.69
2023-02-06T12:39:01.041Z,-0.62
2023-02-06T12:40:01.025Z,-0.64
2023-02-06T12:41:00.734Z,-0.66
2023-02-06T12:42:00.705Z,-0.67
2023-02-06T12:43:00.765Z,-0.73
2023-02-06T12:44:00.946Z,-0.62
2023-02-06T12:45:00.895Z,-0.67
2023-02-06T12:46:00.979Z,-0.69
2023-02-06T12:47:00.341Z,-0.66
2023-02-06T12:48:00.821Z,-0.59
2023-02-06T12:49:00.975Z,-0.61
2023-02-06T12:50:00.544Z,-0.69
2023-02-06T12:51:00.523Z,-0.66
2023-02-06T12:52:00.748Z,-0.67
2023-02-06T12:53:00.798Z,-0.64
2023-02-06T12:54:00.775Z,-0.7
2023-02-06T12:55:00.503Z,-0.58
2023-02-06T12:56:03.101Z,-0.64
2023-02-06T12:57:00.640Z,-0.64
2023-02-06T12:58:00.629Z,-0.72
2023-02-06T12:59:01.067Z,-0.58
2023-02-06T13:00:03.269Z,-0.56
2023-02-06T13:01:00.047Z,-0.52
2023-02-06T13:02:00.915Z,-0.41
2023-02-06T13:03:00.731Z,-0.49
2023-02-06T13:04:00.516Z,-0.45
2023-02-06T13:04:59.972Z,-0.38
2023-02-06T13:06:00.203Z,-0.31
2023-02-06T13:06:59.934Z,-0.34
2023-02-06T13:08:00.418Z,-0.41
2023-02-06T13:09:00.446Z,-0.4
2023-02-06T13:10:00.201Z,-0.34
2023-02-06T13:11:00.359Z,-0.37
2023-02-06T13:12:00.341Z,-0.43
2023-02-06T13:13:00.112Z,-0.4
2023-02-06T13:13:59.787Z,-0.38